Time;durP1;ratioP1;P1;durP2;ratioP2;P2;SDS_P1;SDS_P2;PMS_P1;PMS_P2;Temp;Humidity;BMP_temperature;BMP_pressure;BME280_temperature;BME280_humidity;BME280_pressure;Samples;Min_cycle;Max_cycle;Signal;HPM_P1;HPM_P2
2021/01/21 00:00:38;;;;;;;3.60;3.30;;;11.80;90.80;;;;;;5051399;28;20211;-76
2021/01/21 00:03:04;;;;;;;3.87;3.33;;;11.70;90.80;;;;;;5052523;28;20209;-76
2021/01/21 00:05:30;;;;;;;3.30;3.10;;;11.80;90.80;;;;;;5051790;28;20681;-76
2021/01/21 00:07:55;;;;;;;4.07;3.13;;;11.80;90.70;;;;;;5050557;28;20448;-76
2021/01/21 00:10:21;;;;;;;2.87;2.57;;;11.80;90.70;;;;;;5051127;28;20200;-76
2021/01/21 00:12:47;;;;;;;3.60;2.93;;;11.80;90.80;;;;;;5050505;28;20184;-76
2021/01/21 00:15:12;;;;;;;3.03;2.73;;;11.80;90.60;;;;;;5050415;28;20223;-75
2021/01/21 00:17:38;;;;;;;2.93;2.67;;;11.70;90.60;;;;;;5051250;28;20177;-75
2021/01/21 00:20:05;;;;;;;2.97;2.80;;;11.80;90.70;;;;;;5052454;28;20949;-76
2021/01/21 00:22:31;;;;;;;2.77;2.57;;;11.80;90.70;;;;;;5052057;28;20409;-75
2021/01/21 00:24:56;;;;;;;4.80;2.80;;;11.80;90.60;;;;;;5052507;28;20957;-76
2021/01/21 00:27:22;;;;;;;2.90;2.70;;;11.80;90.60;;;;;;5050464;28;20177;-76
2021/01/21 00:29:48;;;;;;;3.70;3.40;;;11.80;90.60;;;;;;5051095;28;20186;-76
2021/01/21 00:32:13;;;;;;;2.90;2.70;;;11.70;90.50;;;;;;5051718;28;20182;-76
2021/01/21 00:34:39;;;;;;;3.20;3.00;;;11.80;90.80;;;;;;5049666;28;20651;-77
2021/01/21 00:37:05;;;;;;;3.50;3.23;;;11.80;90.60;;;;;;5051697;28;20636;-76
2021/01/21 00:39:31;;;;;;;3.47;3.17;;;11.80;90.60;;;;;;5049890;28;20179;-77
2021/01/21 00:41:56;;;;;;;3.03;2.83;;;11.80;90.40;;;;;;5050263;28;20492;-76
2021/01/21 00:44:22;;;;;;;3.63;3.37;;;11.80;90.40;;;;;;5051926;28;20206;-76
2021/01/21 00:46:48;;;;;;;2.80;2.60;;;11.90;90.20;;;;;;5050986;28;20214;-76
2021/01/21 00:49:14;;;;;;;3.47;3.13;;;11.90;90.20;;;;;;5051984;28;20231;-75
2021/01/21 00:51:40;;;;;;;3.13;2.93;;;11.90;90.10;;;;;;5050960;28;20197;-75
2021/01/21 00:54:06;;;;;;;3.07;2.80;;;11.90;89.70;;;;;;5051241;28;20448;-75
2021/01/21 00:56:31;;;;;;;2.87;2.67;;;11.90;89.80;;;;;;5051273;28;20238;-76
2021/01/21 00:58:57;;;;;;;9.13;3.63;;;11.80;90.00;;;;;;5051373;28;20180;-76
2021/01/21 01:01:23;;;;;;;2.60;2.40;;;11.80;90.20;;;;;;5051121;28;20181;-76
2021/01/21 01:03:48;;;;;;;2.93;2.70;;;11.70;90.00;;;;;;5050514;28;20195;-76
2021/01/21 01:06:14;;;;;;;2.90;2.70;;;11.70;89.90;;;;;;5051644;28;20219;-75
2021/01/21 01:08:40;;;;;;;3.43;3.13;;;11.70;90.00;;;;;;5054639;28;20179;-76
2021/01/21 01:11:06;;;;;;;3.17;2.97;;;11.70;89.80;;;;;;5054226;28;20188;-75
2021/01/21 01:13:31;;;;;;;2.97;2.80;;;11.70;89.70;;;;;;5054846;28;20228;-76
2021/01/21 01:15:57;;;;;;;2.87;2.67;;;11.70;90.00;;;;;;5055179;28;20187;-75
2021/01/21 01:18:23;;;;;;;2.43;2.30;;;11.80;89.80;;;;;;5055590;28;20733;-76
2021/01/21 01:20:49;;;;;;;2.77;2.57;;;11.70;89.30;;;;;;5054558;28;20390;-76
2021/01/21 01:23:15;;;;;;;3.00;2.80;;;11.60;89.60;;;;;;5055220;28;20189;-76
2021/01/21 01:25:41;;;;;;;3.13;2.87;;;11.60;89.60;;;;;;5053346;28;20802;-76
2021/01/21 01:28:07;;;;;;;3.10;2.97;;;11.60;89.50;;;;;;5055521;28;20868;-76
2021/01/21 01:30:32;;;;;;;2.70;2.50;;;11.70;89.40;;;;;;5054651;28;20448;-77
2021/01/21 01:32:58;;;;;;;4.20;2.93;;;11.70;89.30;;;;;;5054617;28;20175;-76
2021/01/21 01:35:24;;;;;;;3.00;2.70;;;11.60;89.00;;;;;;5053882;28;20660;-76
2021/01/21 01:37:50;;;;;;;3.50;3.20;;;11.60;89.00;;;;;;5054315;28;20232;-76
2021/01/21 01:40:15;;;;;;;2.80;2.60;;;11.50;88.90;;;;;;5053907;28;20883;-76
2021/01/21 01:42:42;;;;;;;2.40;2.30;;;11.60;89.50;;;;;;5086482;28;20263;-76
2021/01/21 01:45:10;;;;;;;2.60;2.30;;;11.70;89.10;;;;;;5055110;28;20622;-75
2021/01/21 01:47:38;;;;;;;3.20;2.90;;;11.60;88.90;;;;;;5052751;28;20454;-76
2021/01/21 01:50:04;;;;;;;2.70;2.60;;;11.70;88.60;;;;;;5055094;28;20410;-76
2021/01/21 01:52:31;;;;;;;5.70;3.17;;;11.70;88.50;;;;;;5054825;28;20407;-76
2021/01/21 01:54:56;;;;;;;3.50;2.60;;;11.70;88.40;;;;;;5054531;28;20494;-76
2021/01/21 01:57:23;;;;;;;2.73;2.63;;;11.70;88.20;;;;;;5054584;28;20810;-76
2021/01/21 01:59:52;;;;;;;3.10;2.90;;;11.70;88.10;;;;;;5053752;28;20188;-76
2021/01/21 02:02:18;;;;;;;3.07;2.40;;;11.70;88.30;;;;;;5053944;28;20425;-76
2021/01/21 02:04:45;;;;;;;2.70;2.60;;;11.70;88.10;;;;;;5053301;28;20435;-76
2021/01/21 02:07:12;;;;;;;2.70;2.50;;;11.70;88.00;;;;;;5054307;28;20166;-75
2021/01/21 02:09:37;;;;;;;2.90;2.80;;;11.60;88.40;;;;;;5052508;28;20738;-76
2021/01/21 02:12:15;;;;;;;3.43;3.23;;;11.60;88.50;;;;;;5054216;28;20407;-75
2021/01/21 02:14:58;;;;;;;3.30;3.10;;;11.60;88.30;;;;;;5052092;28;20170;-75
2021/01/21 02:17:38;;;;;;;2.53;2.40;;;11.60;88.20;;;;;;5036742;28;20441;-75
2021/01/21 02:20:22;;;;;;;3.63;2.80;;;11.70;88.10;;;;;;5052450;28;20464;-75
2021/01/21 02:23:35;;;;;;;3.00;2.70;;;11.80;87.70;;;;;;5053351;28;20471;-76
2021/01/21 02:26:21;;;;;;;3.00;2.80;;;11.70;87.70;;;;;;5053956;28;20477;-75
2021/01/21 02:28:50;;;;;;;2.90;2.70;;;11.70;88.00;;;;;;5033173;28;20407;-75
2021/01/21 02:31:22;;;;;;;3.10;2.97;;;11.70;87.90;;;;;;5050521;28;20422;-75
2021/01/21 02:33:56;;;;;;;2.50;2.33;;;11.70;87.60;;;;;;5052897;28;20429;-76
2021/01/21 02:36:33;;;;;;;2.90;2.60;;;11.70;88.10;;;;;;5052849;28;20430;-76
2021/01/21 02:39:03;;;;;;;3.10;2.80;;;11.60;88.10;;;;;;5051881;28;20406;-75
2021/01/21 02:41:31;;;;;;;2.60;2.47;;;11.70;87.80;;;;;;5053652;28;20398;-75
2021/01/21 02:43:57;;;;;;;2.40;2.30;;;11.70;87.80;;;;;;5052122;28;20398;-76
2021/01/21 02:46:23;;;;;;;2.77;2.67;;;11.70;87.60;;;;;;5053892;28;20451;-74
2021/01/21 02:48:53;;;;;;;2.97;2.83;;;11.70;87.60;;;;;;5052859;28;20241;-75
2021/01/21 02:51:24;;;;;;;3.63;2.50;;;11.80;87.50;;;;;;5052964;28;20430;-75
2021/01/21 02:54:01;;;;;;;2.80;2.53;;;11.80;87.40;;;;;;5051691;28;20466;-75
2021/01/21 02:56:32;;;;;;;3.07;2.83;;;11.90;87.70;;;;;;5053494;28;20400;-75
2021/01/21 02:59:01;;;;;;;3.10;2.90;;;11.80;87.20;;;;;;5053071;28;20899;-75
2021/01/21 03:01:27;;;;;;;2.70;2.50;;;11.80;87.20;;;;;;5053389;28;20417;-75
2021/01/21 03:03:55;;;;;;;2.80;2.70;;;11.90;87.10;;;;;;5052696;28;20406;-75
2021/01/21 03:06:22;;;;;;;3.07;2.77;;;11.90;87.00;;;;;;5053421;28;20211;-76
2021/01/21 03:08:49;;;;;;;2.43;2.33;;;11.90;87.00;;;;;;5051108;28;20503;-75
2021/01/21 03:11:15;;;;;;;2.53;2.40;;;11.90;86.60;;;;;;5053077;28;20802;-76
2021/01/21 03:13:45;;;;;;;3.33;3.13;;;12.00;86.70;;;;;;5052204;28;20423;-75
2021/01/21 03:16:11;;;;;;;3.00;2.80;;;11.90;86.30;;;;;;5053259;28;20480;-75
2021/01/21 03:18:37;;;;;;;2.80;2.60;;;12.00;86.70;;;;;;5031031;28;20442;-75
2021/01/21 03:21:04;;;;;;;3.57;3.37;;;12.00;86.20;;;;;;5050917;28;20415;-75
2021/01/21 03:23:29;;;;;;;2.70;2.60;;;11.90;86.40;;;;;;5052049;28;20778;-75
2021/01/21 03:25:55;;;;;;;2.80;2.60;;;12.00;86.30;;;;;;5051838;28;20466;-76
2021/01/21 03:28:21;;;;;;;3.00;2.80;;;12.00;86.20;;;;;;5052671;28;20612;-75
2021/01/21 03:30:47;;;;;;;2.37;2.20;;;11.90;87.00;;;;;;5083432;28;20180;-75
2021/01/21 03:33:12;;;;;;;3.67;3.10;;;11.90;86.40;;;;;;5052981;28;20212;-75
2021/01/21 03:35:38;;;;;;;3.17;2.97;;;12.00;86.80;;;;;;5052058;28;20499;-75
2021/01/21 03:38:04;;;;;;;2.53;2.37;;;12.00;86.40;;;;;;5052032;28;20177;-76
2021/01/21 03:40:30;;;;;;;2.47;2.37;;;12.00;86.60;;;;;;5080236;28;20199;-76
2021/01/21 03:42:56;;;;;;;2.80;2.60;;;12.00;86.70;;;;;;5041761;28;20411;-75
2021/01/21 03:45:21;;;;;;;2.90;2.70;;;12.00;86.40;;;;;;5051473;28;20221;-75
2021/01/21 03:47:47;;;;;;;2.90;2.70;;;12.00;86.50;;;;;;5051411;28;20278;-75
2021/01/21 03:50:13;;;;;;;2.50;2.30;;;12.00;86.70;;;;;;5051336;28;20598;-75
2021/01/21 03:52:39;;;;;;;4.00;2.90;;;12.10;86.70;;;;;;5051667;28;20190;-76
2021/01/21 03:55:05;;;;;;;2.73;2.53;;;12.10;86.80;;;;;;5052828;28;20200;-76
2021/01/21 03:57:30;;;;;;;2.43;2.23;;;12.10;89.00;;;;;;5052224;28;20171;-76
2021/01/21 03:59:56;;;;;;;2.63;2.50;;;12.10;90.00;;;;;;5051657;28;21277;-75
2021/01/21 04:02:22;;;;;;;3.27;2.50;;;12.00;90.30;;;;;;5051017;28;20184;-76
2021/01/21 04:04:47;;;;;;;2.80;2.60;;;12.00;90.20;;;;;;5030252;28;20189;-76
2021/01/21 04:07:13;;;;;;;2.43;2.33;;;12.00;90.00;;;;;;5050397;28;20188;-75
2021/01/21 04:09:39;;;;;;;2.30;2.20;;;12.10;90.00;;;;;;5050778;28;20532;-76
2021/01/21 04:12:05;;;;;;;2.60;2.50;;;12.00;90.00;;;;;;5052299;28;20185;-75
2021/01/21 04:14:31;;;;;;;2.93;2.70;;;12.00;89.60;;;;;;5051999;28;20576;-76
2021/01/21 04:16:56;;;;;;;3.00;2.80;;;12.10;89.40;;;;;;5057863;28;20522;-76
2021/01/21 04:19:22;;;;;;;2.93;2.70;;;12.10;89.40;;;;;;5072256;28;20176;-75
2021/01/21 04:21:48;;;;;;;2.87;2.77;;;12.10;89.10;;;;;;5071138;28;20172;-76
2021/01/21 04:24:13;;;;;;;3.23;3.07;;;12.20;89.40;;;;;;5071748;28;20173;-76
2021/01/21 04:26:39;;;;;;;3.20;3.00;;;12.20;88.70;;;;;;5055558;28;20705;-76
2021/01/21 04:29:05;;;;;;;2.60;2.50;;;12.30;88.90;;;;;;5043673;28;20193;-76
2021/01/21 04:31:31;;;;;;;3.47;3.17;;;12.30;88.80;;;;;;5050078;28;20646;-75
2021/01/21 04:33:56;;;;;;;2.60;2.40;;;12.30;88.60;;;;;;5051267;28;20872;-75
2021/01/21 04:36:22;;;;;;;2.50;2.40;;;12.40;88.30;;;;;;5051800;28;20195;-73
2021/01/21 04:38:48;;;;;;;4.90;4.70;;;12.40;88.30;;;;;;5050487;28;20178;-73
2021/01/21 04:41:13;;;;;;;2.87;2.77;;;12.40;88.20;;;;;;5052092;28;20278;-73
2021/01/21 04:43:39;;;;;;;2.67;2.47;;;12.40;88.40;;;;;;5054854;28;20184;-73
2021/01/21 04:46:08;;;;;;;4.10;3.90;;;12.50;88.20;;;;;;5055973;28;20216;-73
2021/01/21 04:48:35;;;;;;;2.40;2.30;;;12.60;88.30;;;;;;5055999;28;20234;-73
2021/01/21 04:51:02;;;;;;;4.10;3.90;;;12.50;88.00;;;;;;5055009;28;20891;-73
2021/01/21 04:53:28;;;;;;;3.43;3.27;;;12.50;87.80;;;;;;5056168;28;20437;-73
2021/01/21 04:56:02;;;;;;;2.60;2.10;;;12.60;88.00;;;;;;5055072;28;20421;-73
2021/01/21 04:58:39;;;;;;;2.00;1.90;;;12.50;87.90;;;;;;5055898;28;20563;-73
2021/01/21 05:01:06;;;;;;;2.07;1.97;;;12.50;88.10;;;;;;5055858;28;20432;-73
2021/01/21 05:03:32;;;;;;;2.97;2.87;;;12.50;88.10;;;;;;5055596;28;20485;-73
2021/01/21 05:05:58;;;;;;;2.70;2.60;;;12.60;88.30;;;;;;5054699;28;21137;-73
2021/01/21 05:08:24;;;;;;;4.80;4.60;;;12.60;88.50;;;;;;5054700;28;20967;-73
2021/01/21 05:10:50;;;;;;;2.70;2.50;;;12.50;88.30;;;;;;5054886;28;20408;-73
2021/01/21 05:13:17;;;;;;;4.50;4.40;;;12.50;89.50;;;;;;5055517;28;20262;-73
2021/01/21 05:15:43;;;;;;;2.90;2.70;;;12.50;88.90;;;;;;5054566;28;20481;-73
2021/01/21 05:18:10;;;;;;;2.43;2.33;;;12.50;89.00;;;;;;5053942;28;20419;-73
2021/01/21 05:20:36;;;;;;;2.30;1.97;;;12.50;89.10;;;;;;5055150;28;20431;-73
2021/01/21 05:23:04;;;;;;;3.33;3.10;;;12.50;89.30;;;;;;5054789;28;20481;-73
2021/01/21 05:25:30;;;;;;;2.73;2.63;;;12.50;89.40;;;;;;5055068;28;20560;-73
2021/01/21 05:27:58;;;;;;;2.90;2.20;;;12.60;89.60;;;;;;5054042;28;20474;-73
2021/01/21 05:30:31;;;;;;;1.90;1.80;;;12.60;89.60;;;;;;5055474;28;20438;-73
2021/01/21 05:33:00;;;;;;;1.87;1.77;;;12.60;89.80;;;;;;5054434;28;20410;-73
2021/01/21 05:35:26;;;;;;;2.10;2.10;;;12.70;89.90;;;;;;5055468;28;20440;-73
2021/01/21 05:37:56;;;;;;;2.40;2.30;;;12.70;89.90;;;;;;5052850;28;20406;-73
2021/01/21 05:40:29;;;;;;;2.23;2.13;;;12.70;90.00;;;;;;5054700;28;20419;-73
2021/01/21 05:42:57;;;;;;;2.30;2.10;;;12.70;90.30;;;;;;5054068;28;20552;-73
2021/01/21 05:45:24;;;;;;;2.27;2.17;;;12.70;90.60;;;;;;5054644;28;20461;-73
2021/01/21 05:48:02;;;;;;;2.47;2.43;;;12.60;90.70;;;;;;5053480;28;20970;-73
2021/01/21 05:50:29;;;;;;;2.40;2.30;;;12.60;91.00;;;;;;5055377;28;20403;-73
2021/01/21 05:52:58;;;;;;;6.30;2.40;;;12.60;91.80;;;;;;5054030;28;20435;-73
2021/01/21 05:55:26;;;;;;;2.67;2.47;;;12.60;92.70;;;;;;5054464;28;20422;-73
2021/01/21 05:57:53;;;;;;;2.43;2.37;;;12.60;93.30;;;;;;5054115;28;20479;-73
2021/01/21 06:00:20;;;;;;;2.10;2.00;;;12.60;93.70;;;;;;5054530;28;20427;-76
2021/01/21 06:02:50;;;;;;;2.43;2.27;;;12.40;94.90;;;;;;5053903;28;20421;-75
2021/01/21 06:05:23;;;;;;;1.80;1.70;;;12.20;96.00;;;;;;5054150;28;20462;-72
2021/01/21 06:07:49;;;;;;;3.60;3.40;;;11.70;95.30;;;;;;5054116;28;20407;-72
2021/01/21 06:10:17;;;;;;;1.83;1.83;;;11.30;95.10;;;;;;5054923;28;20460;-72
2021/01/21 06:12:51;;;;;;;1.50;1.50;;;11.00;95.50;;;;;;5052878;28;20797;-72
2021/01/21 06:15:18;;;;;;;3.07;2.97;;;10.80;95.70;;;;;;5053045;28;20424;-72
2021/01/21 06:17:45;;;;;;;1.87;1.70;;;10.60;96.30;;;;;;5051833;28;20424;-72
2021/01/21 06:20:12;;;;;;;2.13;2.03;;;10.40;96.60;;;;;;5053572;28;20774;-72
2021/01/21 06:22:45;;;;;;;1.50;1.50;;;10.10;96.80;;;;;;5054531;28;20439;-72
2021/01/21 06:25:16;;;;;;;1.30;1.30;;;10.10;97.40;;;;;;5054333;28;20469;-72
2021/01/21 06:27:43;;;;;;;1.20;1.20;;;10.00;97.50;;;;;;5053768;28;20483;-72
2021/01/21 06:30:16;;;;;;;1.50;1.40;;;9.80;98.10;;;;;;5053119;28;20449;-72
2021/01/21 06:32:48;;;;;;;2.20;2.13;;;9.70;98.50;;;;;;5033750;28;20393;-72
2021/01/21 06:35:19;;;;;;;2.30;2.20;;;9.70;98.30;;;;;;5034526;28;20456;-72
2021/01/21 06:37:49;;;;;;;1.97;1.87;;;9.70;97.80;;;;;;5034181;28;20883;-73
2021/01/21 06:40:15;;;;;;;1.80;1.80;;;9.60;98.30;;;;;;5034255;28;20904;-72
2021/01/21 06:43:11;;;;;;;3.43;3.33;;;9.50;98.20;;;;;;5041030;28;20482;-72
2021/01/21 06:45:38;;;;;;;2.10;2.00;;;9.60;98.50;;;;;;5054252;28;20452;-72
2021/01/21 06:48:05;;;;;;;4.60;4.40;;;9.40;98.10;;;;;;5053228;28;20444;-73
2021/01/21 06:50:31;;;;;;;1.90;1.73;;;9.40;97.90;;;;;;5053860;28;20455;-72
2021/01/21 06:52:59;;;;;;;1.53;1.30;;;9.30;97.80;;;;;;5053598;28;20912;-73
2021/01/21 06:55:26;;;;;;;1.80;1.70;;;9.30;97.70;;;;;;5054082;28;20419;-73
2021/01/21 06:57:52;;;;;;;1.67;1.60;;;9.30;97.70;;;;;;5053028;28;20390;-73
2021/01/21 07:00:37;;;;;;;2.73;2.63;;;9.30;97.60;;;;;;5053983;28;20379;-72
2021/01/21 07:03:05;;;;;;;1.47;1.30;;;9.20;97.60;;;;;;5052064;28;20174;-73
2021/01/21 07:05:31;;;;;;;1.60;1.50;;;9.20;97.40;;;;;;5052188;28;20877;-72
2021/01/21 07:08:01;;;;;;;2.00;1.10;;;9.20;97.20;;;;;;5053310;28;20423;-73
2021/01/21 07:10:29;;;;;;;3.13;2.80;;;9.10;97.50;;;;;;5053268;28;20632;-74
2021/01/21 07:12:57;;;;;;;2.60;2.20;;;9.20;98.80;;;;;;5053017;28;20391;-75
2021/01/21 07:15:47;;;;;;;3.47;1.77;;;9.40;98.90;;;;;;5053792;28;20390;-73
2021/01/21 07:18:21;;;;;;;3.33;3.03;;;9.50;98.90;;;;;;5053684;28;20393;-73
2021/01/21 07:21:00;;;;;;;4.33;3.93;;;9.40;96.90;;;;;;5052575;28;20819;-72
2021/01/21 07:23:42;;;;;;;5.10;3.90;;;9.40;97.70;;;;;;5053569;28;20813;-72
2021/01/21 07:26:21;;;;;;;4.83;4.63;;;9.40;98.90;;;;;;5052486;28;20427;-72
2021/01/21 07:29:13;;;;;;;4.67;2.73;;;9.50;98.10;;;;;;5052589;28;20427;-73
2021/01/21 07:31:54;;;;;;;2.40;2.30;;;9.50;97.20;;;;;;5053501;28;20391;-72
2021/01/21 07:34:35;;;;;;;2.50;2.30;;;9.40;98.40;;;;;;5053197;28;20573;-72
2021/01/21 07:37:22;;;;;;;3.97;3.77;;;9.80;98.90;;;;;;5081501;28;20395;-72
2021/01/21 07:39:50;;;;;;;3.53;2.03;;;10.00;97.90;;;;;;5052320;28;20796;-73
2021/01/21 07:42:16;;;;;;;3.03;2.70;;;9.90;95.80;;;;;;5052523;28;20484;-72
2021/01/21 07:44:58;;;;;;;3.00;2.20;;;9.80;97.80;;;;;;5052544;28;20858;-72
2021/01/21 07:47:35;;;;;;;2.50;2.40;;;9.80;96.10;;;;;;5043313;28;20896;-72
2021/01/21 07:50:21;;;;;;;3.33;2.23;;;9.70;95.80;;;;;;5052169;28;20424;-73
2021/01/21 07:52:52;;;;;;;4.10;3.67;;;9.60;95.80;;;;;;5052197;28;20419;-73
2021/01/21 07:55:31;;;;;;;3.20;3.10;;;9.50;96.40;;;;;;5052323;28;20401;-72
2021/01/21 07:58:19;;;;;;;2.80;1.90;;;9.50;96.30;;;;;;5051747;28;20416;-74
2021/01/21 08:00:47;;;;;;;4.13;2.40;;;9.50;96.40;;;;;;5052583;28;20431;-74
2021/01/21 08:03:13;;;;;;;2.60;2.33;;;9.40;96.50;;;;;;5052253;28;20435;-74
2021/01/21 08:05:39;;;;;;;2.90;2.70;;;9.40;96.60;;;;;;5051873;28;20777;-74
2021/01/21 08:08:05;;;;;;;2.87;2.40;;;9.30;96.90;;;;;;5050864;28;20711;-74
2021/01/21 08:10:33;;;;;;;9.83;4.27;;;9.20;96.90;;;;;;5051079;28;20180;-74
2021/01/21 08:13:01;;;;;;;2.87;2.47;;;9.20;97.20;;;;;;5051727;28;20445;-74
2021/01/21 08:15:28;;;;;;;2.40;2.20;;;9.10;97.20;;;;;;5052510;28;20412;-74
2021/01/21 08:17:55;;;;;;;4.67;1.97;;;9.10;97.40;;;;;;5050716;28;20412;-75
2021/01/21 08:20:29;;;;;;;4.67;2.03;;;9.10;97.20;;;;;;5051941;28;20415;-76
2021/01/21 08:22:55;;;;;;;2.20;2.10;;;9.00;97.20;;;;;;5030711;28;20406;-75
2021/01/21 08:25:21;;;;;;;2.20;2.00;;;9.00;97.30;;;;;;5053259;28;20515;-75
2021/01/21 08:27:48;;;;;;;6.43;2.63;;;9.00;97.30;;;;;;5051347;28;20620;-75
2021/01/21 08:30:23;;;;;;;2.60;2.10;;;9.00;97.40;;;;;;5051904;28;20515;-75
2021/01/21 08:33:01;;;;;;;2.40;2.20;;;8.90;97.50;;;;;;5050365;28;20781;-75
2021/01/21 08:35:29;;;;;;;5.30;2.50;;;8.80;97.50;;;;;;5032438;28;20376;-75
2021/01/21 08:37:58;;;;;;;2.63;2.53;;;8.80;97.70;;;;;;5051031;28;20415;-75
2021/01/21 08:40:24;;;;;;;1.70;1.37;;;8.80;97.80;;;;;;5051709;28;20920;-75
2021/01/21 08:42:51;;;;;;;4.00;1.83;;;8.80;97.90;;;;;;5050457;28;20911;-75
2021/01/21 08:45:18;;;;;;;3.57;2.17;;;8.90;97.70;;;;;;5050893;28;20805;-75
2021/01/21 08:47:48;;;;;;;2.23;2.13;;;8.80;97.80;;;;;;5051809;28;20417;-75
2021/01/21 08:50:16;;;;;;;4.40;2.77;;;8.80;97.80;;;;;;5052410;28;20727;-75
2021/01/21 08:52:59;;;;;;;2.90;2.50;;;8.80;97.50;;;;;;5051897;28;20416;-75
2021/01/21 08:55:45;;;;;;;2.70;2.50;;;8.80;97.70;;;;;;5051602;28;20416;-75
2021/01/21 08:58:13;;;;;;;2.60;2.50;;;8.80;97.80;;;;;;5051104;28;20446;-75
2021/01/21 09:01:04;;;;;;;2.43;2.33;;;8.80;97.70;;;;;;5052074;28;20407;-75
2021/01/21 09:03:52;;;;;;;3.10;2.87;;;8.70;98.10;;;;;;5052050;28;20419;-75
2021/01/21 09:06:20;;;;;;;2.20;2.10;;;8.80;98.20;;;;;;5052073;28;20814;-75
2021/01/21 09:08:51;;;;;;;3.53;2.30;;;9.10;98.40;;;;;;5053039;28;20444;-75
2021/01/21 09:11:33;;;;;;;3.53;2.30;;;9.60;97.30;;;;;;5050836;28;20827;-75
2021/01/21 09:14:00;;;;;;;3.20;3.00;;;10.60;95.00;;;;;;5050930;28;20424;-75
2021/01/21 09:16:49;;;;;;;2.70;2.50;;;11.70;92.50;;;;;;5051730;28;20410;-75
2021/01/21 09:19:17;;;;;;;2.93;2.60;;;13.00;88.60;;;;;;5032076;28;20423;-75
2021/01/21 09:21:59;;;;;;;4.10;3.20;;;14.10;84.00;;;;;;5032092;28;20429;-75
2021/01/21 09:24:25;;;;;;;4.70;4.30;;;15.00;81.30;;;;;;5034787;28;20936;-75
2021/01/21 09:27:11;;;;;;;3.13;3.03;;;15.50;76.30;;;;;;5042411;28;20518;-76
2021/01/21 09:29:50;;;;;;;2.40;2.20;;;16.80;72.70;;;;;;5054056;28;20900;-75
2021/01/21 09:32:17;;;;;;;2.90;2.70;;;17.40;67.80;;;;;;5055128;28;20415;-74
2021/01/21 09:34:56;;;;;;;3.17;2.80;;;18.20;64.30;;;;;;5036596;28;20416;-75
2021/01/21 09:37:23;;;;;;;2.60;2.00;;;19.00;62.40;;;;;;5047273;28;20431;-75
2021/01/21 09:39:49;;;;;;;5.63;5.37;;;19.30;59.30;;;;;;5052937;28;20432;-74
2021/01/21 09:42:16;;;;;;;3.93;3.63;;;19.20;59.50;;;;;;5052730;28;20424;-74
2021/01/21 09:44:43;;;;;;;3.80;3.50;;;19.80;58.80;;;;;;5051635;28;20774;-75
2021/01/21 09:47:08;;;;;;;3.10;2.90;;;20.00;57.30;;;;;;5046825;28;20456;-75
2021/01/21 09:49:34;;;;;;;3.90;3.50;;;20.20;56.20;;;;;;5054344;28;20478;-75
2021/01/21 09:52:00;;;;;;;2.93;2.73;;;20.10;55.60;;;;;;5053231;28;20197;-75
2021/01/21 09:54:27;;;;;;;5.50;5.20;;;19.40;56.10;;;;;;5054464;28;20454;-75
2021/01/21 09:56:54;;;;;;;2.57;2.37;;;19.30;57.40;;;;;;5054530;28;20396;-75
2021/01/21 09:59:21;;;;;;;5.33;5.03;;;18.90;56.90;;;;;;5054875;28;20428;-75
2021/01/21 10:01:47;;;;;;;6.00;5.57;;;18.70;57.40;;;;;;5054905;28;20405;-76
2021/01/21 10:04:13;;;;;;;4.70;4.30;;;18.70;58.00;;;;;;5054104;28;20431;-76
2021/01/21 10:06:39;;;;;;;4.20;4.00;;;18.40;58.30;;;;;;5053587;28;21029;-76
2021/01/21 10:09:05;;;;;;;4.87;4.53;;;18.00;58.40;;;;;;5054181;28;20404;-76
2021/01/21 10:11:31;;;;;;;3.50;3.20;;;17.70;59.20;;;;;;5054713;28;20542;-76
2021/01/21 10:13:56;;;;;;;5.57;5.17;;;17.30;59.70;;;;;;5053891;28;20184;-76
2021/01/21 10:16:22;;;;;;;5.20;4.70;;;16.80;61.50;;;;;;5054706;28;20185;-75
2021/01/21 10:18:48;;;;;;;3.80;3.50;;;16.70;61.40;;;;;;5054496;28;20184;-76
2021/01/21 10:21:14;;;;;;;5.00;4.60;;;16.60;61.60;;;;;;5053863;28;20354;-76
2021/01/21 10:23:40;;;;;;;4.87;3.20;;;16.50;61.60;;;;;;5054162;28;20203;-76
2021/01/21 10:26:06;;;;;;;6.33;5.77;;;16.60;62.00;;;;;;5054074;28;20461;-76
2021/01/21 10:28:32;;;;;;;3.43;2.80;;;16.40;61.00;;;;;;5054427;28;20879;-76
2021/01/21 10:30:57;;;;;;;5.80;5.40;;;16.30;61.70;;;;;;5053707;28;20181;-76
2021/01/21 10:33:23;;;;;;;3.10;2.80;;;16.20;61.60;;;;;;5054181;28;20178;-75
2021/01/21 10:35:49;;;;;;;5.80;5.40;;;16.00;62.00;;;;;;5054627;28;20185;-75
2021/01/21 10:38:15;;;;;;;5.50;5.10;;;15.80;62.90;;;;;;5053433;28;20718;-75
2021/01/21 10:40:40;;;;;;;5.50;3.60;;;15.50;63.30;;;;;;5053687;28;20224;-76
2021/01/21 10:43:07;;;;;;;5.00;4.63;;;15.50;64.00;;;;;;5053280;28;20219;-75
2021/01/21 10:45:33;;;;;;;6.97;3.90;;;15.40;64.20;;;;;;5054006;28;20263;-76
2021/01/21 10:47:59;;;;;;;4.43;4.03;;;15.50;65.20;;;;;;5052976;28;20455;-77
2021/01/21 10:50:25;;;;;;;6.10;5.80;;;15.40;65.70;;;;;;5053780;28;20416;-76
2021/01/21 10:52:50;;;;;;;5.07;3.27;;;15.40;65.80;;;;;;5054248;28;20189;-76
2021/01/21 10:55:16;;;;;;;7.80;5.77;;;15.30;65.80;;;;;;5053059;28;20557;-76
2021/01/21 10:57:42;;;;;;;3.93;3.13;;;15.20;65.90;;;;;;5053939;28;20187;-77
2021/01/21 11:00:08;;;;;;;5.67;5.17;;;15.00;66.40;;;;;;5053057;28;20200;-77
2021/01/21 11:02:34;;;;;;;3.73;3.33;;;14.90;67.50;;;;;;5053724;28;20415;-77
2021/01/21 11:05:00;;;;;;;6.30;5.90;;;14.60;68.30;;;;;;5052680;28;20414;-76
2021/01/21 11:07:25;;;;;;;5.90;5.40;;;14.40;68.90;;;;;;5053203;28;20538;-77
2021/01/21 11:09:51;;;;;;;4.40;3.53;;;14.30;69.40;;;;;;5052871;28;20642;-75
2021/01/21 11:12:23;;;;;;;5.43;3.27;;;14.10;68.90;;;;;;5051952;28;20198;-75
2021/01/21 11:14:49;;;;;;;5.20;4.90;;;14.00;69.10;;;;;;5053440;28;20171;-75
2021/01/21 11:17:15;;;;;;;3.83;3.50;;;13.90;70.40;;;;;;5052640;28;20945;-76
2021/01/21 11:19:40;;;;;;;3.90;3.70;;;13.90;71.10;;;;;;5053706;28;20832;-75
2021/01/21 11:22:06;;;;;;;6.20;4.30;;;13.90;70.20;;;;;;5052630;28;20257;-75
2021/01/21 11:24:32;;;;;;;3.40;3.10;;;13.80;70.40;;;;;;5052929;28;20174;-75
2021/01/21 11:26:57;;;;;;;3.60;3.40;;;13.60;71.00;;;;;;5052602;28;20293;-75
2021/01/21 11:29:24;;;;;;;6.33;6.00;;;13.80;70.70;;;;;;5053266;28;20166;-75
2021/01/21 11:31:52;;;;;;;5.13;2.87;;;13.80;69.90;;;;;;5053197;28;20170;-74
2021/01/21 11:34:19;;;;;;;5.90;3.23;;;13.70;70.10;;;;;;5052545;28;20409;-75
2021/01/21 11:36:45;;;;;;;4.17;3.80;;;13.80;70.00;;;;;;5053064;28;20409;-76
2021/01/21 11:39:10;;;;;;;3.83;3.50;;;13.60;71.00;;;;;;5052254;28;20913;-76
2021/01/21 11:41:36;;;;;;;3.87;3.40;;;13.50;70.60;;;;;;5052372;28;20408;-76
2021/01/21 11:44:02;;;;;;;4.73;3.07;;;13.40;70.90;;;;;;5052067;28;20174;-75
2021/01/21 11:46:28;;;;;;;3.60;3.40;;;13.40;71.60;;;;;;5052725;28;20463;-75
2021/01/21 11:48:54;;;;;;;5.50;4.10;;;13.20;71.60;;;;;;5051390;28;20460;-75
2021/01/21 11:51:20;;;;;;;3.80;3.50;;;13.20;72.60;;;;;;5051069;28;20178;-76
2021/01/21 11:53:45;;;;;;;4.27;3.97;;;13.20;72.90;;;;;;5052729;28;20224;-76
2021/01/21 11:56:11;;;;;;;5.87;5.63;;;13.10;73.40;;;;;;5052150;28;20190;-77
2021/01/21 11:58:37;;;;;;;4.07;3.77;;;12.70;73.30;;;;;;5052792;28;20196;-75
2021/01/21 12:01:03;;;;;;;5.70;5.50;;;12.60;73.40;;;;;;5052073;28;20403;-75
2021/01/21 12:03:29;;;;;;;4.70;4.40;;;12.50;74.10;;;;;;5051833;28;20224;-75
2021/01/21 12:05:55;;;;;;;3.30;3.00;;;12.20;74.40;;;;;;5052475;28;20502;-76
2021/01/21 12:08:21;;;;;;;5.23;4.97;;;12.10;74.90;;;;;;5048034;28;20226;-74
2021/01/21 12:10:48;;;;;;;4.20;4.00;;;12.10;76.10;;;;;;5052584;28;20302;-74
2021/01/21 12:13:17;;;;;;;3.20;3.10;;;11.90;75.90;;;;;;5051145;28;20412;-75
2021/01/21 12:15:43;;;;;;;4.07;3.30;;;11.70;76.90;;;;;;5053347;28;20417;-75
2021/01/21 12:18:09;;;;;;;3.80;3.60;;;11.50;76.90;;;;;;5051485;28;20428;-75
2021/01/21 12:20:35;;;;;;;4.13;3.87;;;11.50;78.00;;;;;;5052407;28;20412;-75
2021/01/21 12:23:01;;;;;;;3.90;3.60;;;11.40;78.60;;;;;;5051660;28;20396;-75
2021/01/21 12:25:26;;;;;;;5.40;5.00;;;11.40;79.00;;;;;;5051499;28;20220;-75
2021/01/21 12:27:52;;;;;;;4.13;3.90;;;11.40;78.70;;;;;;5050680;28;20534;-76
2021/01/21 12:30:18;;;;;;;3.93;3.73;;;11.30;78.00;;;;;;5051383;28;20739;-75
2021/01/21 12:32:44;;;;;;;3.70;3.50;;;11.40;78.90;;;;;;5052511;28;20186;-75
2021/01/21 12:35:11;;;;;;;3.47;3.37;;;11.20;78.80;;;;;;5051055;28;20393;-75
2021/01/21 12:37:38;;;;;;;3.27;3.10;;;11.10;78.80;;;;;;5050604;28;20532;-75
2021/01/21 12:40:05;;;;;;;3.83;3.50;;;11.10;79.60;;;;;;5050759;28;20427;-76
2021/01/21 12:42:31;;;;;;;3.53;3.30;;;11.10;80.30;;;;;;5051902;28;20495;-76
2021/01/21 12:44:56;;;;;;;3.17;3.00;;;11.10;80.50;;;;;;5048632;28;20464;-75
2021/01/21 12:47:22;;;;;;;4.97;3.60;;;11.20;80.00;;;;;;5052546;28;20176;-75
2021/01/21 12:49:48;;;;;;;3.20;3.10;;;11.10;80.10;;;;;;5052436;28;20552;-75
2021/01/21 12:52:14;;;;;;;2.90;2.80;;;11.00;80.50;;;;;;5051645;28;20431;-75
2021/01/21 12:54:42;;;;;;;3.23;3.00;;;11.00;80.70;;;;;;5051708;28;20173;-75